Time;durP1;ratioP1;P1;durP2;ratioP2;P2;SDS_P1;SDS_P2;PMS_P1;PMS_P2;Temp;Humidity;BMP_temperature;BMP_pressure;BME280_temperature;BME280_humidity;BME280_pressure;Samples;Min_cycle;Max_cycle;Signal;HPM_P1;HPM_P2
2023/12/04 00:02:26;;;;;;;36.67;20.40;;;-4.60;92.20;;;;;;6286372;28;20032;-76
2023/12/04 00:05:28;;;;;;;29.63;17.73;;;-4.60;92.20;;;;;;6277452;28;20124;-77
2023/12/04 00:08:30;;;;;;;37.13;19.47;;;-4.60;92.10;;;;;;6273245;28;20047;-77
2023/12/04 00:11:33;;;;;;;29.00;18.13;;;-4.70;92.10;;;;;;6273296;28;20052;-78
2023/12/04 00:14:34;;;;;;;27.70;17.20;;;-4.70;92.20;;;;;;6272781;28;20048;-78
2023/12/04 00:17:39;;;;;;;30.03;18.33;;;-4.70;92.10;;;;;;6272583;28;20056;-77
2023/12/04 00:20:41;;;;;;;29.60;20.07;;;-4.70;92.20;;;;;;6273482;28;20045;-78
2023/12/04 00:23:42;;;;;;;27.93;18.40;;;-4.70;92.20;;;;;;6270777;28;20045;-77
2023/12/04 00:26:45;;;;;;;30.77;19.87;;;-4.70;92.20;;;;;;6272262;28;20077;-77
2023/12/04 00:29:47;;;;;;;31.67;18.43;;;-4.70;92.20;;;;;;6272295;28;20048;-78
2023/12/04 00:32:49;;;;;;;35.07;19.87;;;-4.70;92.10;;;;;;6279153;28;20049;-77
2023/12/04 00:35:50;;;;;;;31.40;19.83;;;-4.60;92.50;;;;;;6283344;28;20041;-77
2023/12/04 00:38:52;;;;;;;29.00;18.90;;;-4.60;92.10;;;;;;6273865;28;20037;-78
2023/12/04 00:41:55;;;;;;;32.83;19.20;;;-4.70;92.00;;;;;;6277352;28;20060;-77
2023/12/04 00:44:57;;;;;;;30.60;20.83;;;-4.60;92.00;;;;;;6277104;28;20045;-77
2023/12/04 00:47:58;;;;;;;28.67;18.03;;;-4.60;92.10;;;;;;6276846;28;20040;-77
2023/12/04 00:51:00;;;;;;;35.17;16.53;;;-4.60;92.00;;;;;;6286899;28;20051;-79
2023/12/04 00:54:02;;;;;;;33.47;20.57;;;-4.50;91.90;;;;;;6271022;28;20052;-78
2023/12/04 00:57:05;;;;;;;28.60;18.97;;;-4.60;91.90;;;;;;6279969;28;20059;-79
2023/12/04 01:00:08;;;;;;;26.47;17.33;;;-4.50;92.00;;;;;;6270221;28;20423;-77
2023/12/04 01:03:09;;;;;;;31.77;19.03;;;-4.50;92.00;;;;;;6277522;28;20064;-78
2023/12/04 01:06:22;;;;;;;34.23;19.93;;;-4.40;92.00;;;;;;6270680;28;20045;-78
2023/12/04 01:09:24;;;;;;;29.87;18.87;;;-4.40;91.90;;;;;;6286427;28;20052;-78
2023/12/04 01:12:27;;;;;;;29.00;18.50;;;-4.40;91.90;;;;;;6284986;28;20044;-78
2023/12/04 01:15:29;;;;;;;37.73;20.27;;;-4.40;91.90;;;;;;6293698;28;20047;-77
2023/12/04 01:18:31;;;;;;;33.50;19.30;;;-4.40;92.00;;;;;;6277409;28;20033;-78
2023/12/04 01:21:32;;;;;;;28.80;19.93;;;-4.30;92.00;;;;;;6280737;28;20067;-77
2023/12/04 01:24:34;;;;;;;31.30;19.97;;;-4.30;92.00;;;;;;6290630;28;20167;-78
2023/12/04 01:27:37;;;;;;;36.67;20.03;;;-4.30;91.90;;;;;;6280457;28;20418;-77
2023/12/04 01:30:39;;;;;;;27.70;19.23;;;-4.20;92.00;;;;;;6276831;28;20037;-78
2023/12/04 01:33:41;;;;;;;27.90;19.47;;;-4.30;91.80;;;;;;6315716;22;20045;-78
2023/12/04 01:36:44;;;;;;;34.47;18.60;;;-4.30;91.80;;;;;;6304415;28;20045;-78
2023/12/04 01:39:46;;;;;;;31.77;18.87;;;-4.30;91.80;;;;;;6286146;28;20501;-79
2023/12/04 01:42:51;;;;;;;31.73;18.03;;;-4.30;91.80;;;;;;6304102;28;20511;-78
2023/12/04 01:45:54;;;;;;;32.73;19.47;;;-4.30;91.80;;;;;;6332729;28;20060;-78
2023/12/04 01:49:30;;;;;;;28.27;17.57;;;-4.40;91.70;;;;;;6346371;28;20047;-79
2023/12/04 01:52:33;;;;;;;33.30;18.57;;;-4.50;91.70;;;;;;6287785;28;20068;-79
2023/12/04 01:55:41;;;;;;;28.23;18.07;;;-4.50;91.60;;;;;;6309625;28;20041;-79
2023/12/04 01:58:45;;;;;;;29.97;18.43;;;-4.50;91.60;;;;;;6319906;28;20040;-78
2023/12/04 02:01:47;;;;;;;29.27;16.33;;;-4.60;91.70;;;;;;6317565;28;20408;-79
2023/12/04 02:04:49;;;;;;;29.80;18.27;;;-4.60;91.70;;;;;;6333205;28;20039;-79
2023/12/04 02:07:50;;;;;;;25.23;17.83;;;-4.70;91.70;;;;;;6320493;28;20045;-79
2023/12/04 02:10:52;;;;;;;24.17;16.93;;;-4.70;91.70;;;;;;6331478;28;20040;-78
2023/12/04 02:13:56;;;;;;;27.27;16.87;;;-4.70;91.70;;;;;;6326901;28;20054;-79
2023/12/04 02:16:59;;;;;;;33.37;19.30;;;-4.70;91.70;;;;;;6327118;28;20062;-79
2023/12/04 02:20:00;;;;;;;35.70;18.57;;;-4.80;91.60;;;;;;6325713;28;20611;-78
2023/12/04 02:23:03;;;;;;;29.67;20.33;;;-4.80;91.60;;;;;;6325375;28;20066;-78
2023/12/04 02:26:11;;;;;;;30.47;19.53;;;-4.90;91.60;;;;;;6333722;28;20054;-78
2023/12/04 02:29:20;;;;;;;30.07;17.37;;;-4.90;91.60;;;;;;6325496;28;20048;-78
2023/12/04 02:32:23;;;;;;;26.93;16.40;;;-4.90;91.70;;;;;;6327679;28;20512;-78
2023/12/04 02:35:29;;;;;;;26.33;18.27;;;-4.90;91.70;;;;;;6327612;28;20044;-78
2023/12/04 02:38:31;;;;;;;29.93;19.63;;;-4.90;91.70;;;;;;6326591;28;20044;-78
2023/12/04 02:41:34;;;;;;;29.57;18.33;;;-4.90;91.60;;;;;;6329883;28;20047;-78
2023/12/04 02:44:36;;;;;;;30.13;17.70;;;-4.90;91.60;;;;;;6327346;28;20041;-78
2023/12/04 02:47:38;;;;;;;30.80;18.90;;;-4.90;91.90;;;;;;6326033;28;20059;-79
2023/12/04 02:50:40;;;;;;;27.37;16.43;;;-4.90;91.60;;;;;;6330261;28;20043;-79
2023/12/04 02:53:41;;;;;;;28.77;16.23;;;-4.90;91.70;;;;;;6325513;28;20044;-78
2023/12/04 02:56:44;;;;;;;26.50;18.97;;;-4.80;91.70;;;;;;6326095;28;20048;-78
2023/12/04 02:59:46;;;;;;;29.10;18.97;;;-4.80;91.60;;;;;;6329040;28;20055;-78
2023/12/04 03:02:48;;;;;;;34.10;17.87;;;-4.80;91.60;;;;;;6324756;28;20055;-78
2023/12/04 03:05:49;;;;;;;29.17;17.83;;;-4.70;91.60;;;;;;6329330;28;20044;-79
2023/12/04 03:08:51;;;;;;;29.77;18.30;;;-4.70;91.50;;;;;;6326580;28;20048;-78
2023/12/04 03:11:54;;;;;;;30.27;18.23;;;-4.80;91.50;;;;;;6325323;28;20161;-79
2023/12/04 03:14:56;;;;;;;32.00;17.90;;;-4.70;91.60;;;;;;6330646;28;20404;-79
2023/12/04 03:18:00;;;;;;;35.90;20.73;;;-4.70;91.60;;;;;;6321179;28;20041;-79
2023/12/04 03:21:02;;;;;;;27.43;16.50;;;-4.70;91.60;;;;;;6330852;28;20063;-78
2023/12/04 03:24:04;;;;;;;37.93;19.20;;;-4.70;91.60;;;;;;6325370;28;20555;-78
2023/12/04 03:27:07;;;;;;;32.73;19.30;;;-4.70;91.60;;;;;;6326913;28;20052;-78
2023/12/04 03:30:10;;;;;;;32.90;20.80;;;-4.70;91.70;;;;;;6327252;28;20044;-79
2023/12/04 03:33:12;;;;;;;26.93;17.23;;;-4.60;91.70;;;;;;6330182;28;20059;-79
2023/12/04 03:36:13;;;;;;;34.97;20.77;;;-4.60;91.70;;;;;;6327441;28;20047;-78
2023/12/04 03:39:15;;;;;;;31.13;20.30;;;-4.60;91.70;;;;;;6331869;28;20044;-78
2023/12/04 03:42:18;;;;;;;31.27;18.83;;;-4.50;91.70;;;;;;6329854;28;20056;-78
2023/12/04 03:45:20;;;;;;;30.47;21.73;;;-4.50;91.70;;;;;;6328481;28;20047;-79
2023/12/04 03:48:22;;;;;;;27.63;18.97;;;-4.40;91.70;;;;;;6325174;28;20048;-79
2023/12/04 03:51:23;;;;;;;37.00;23.07;;;-4.40;91.70;;;;;;6320416;28;20497;-79
2023/12/04 03:54:25;;;;;;;31.67;20.23;;;-4.30;91.70;;;;;;6320145;28;20066;-78
2023/12/04 03:57:28;;;;;;;32.57;20.57;;;-4.20;91.80;;;;;;6324080;28;20040;-79
2023/12/04 04:00:30;;;;;;;32.33;21.53;;;-4.20;91.70;;;;;;6321815;28;20058;-78
2023/12/04 04:03:31;;;;;;;31.93;19.87;;;-4.10;91.80;;;;;;6319634;28;20044;-78
2023/12/04 04:06:33;;;;;;;31.27;21.63;;;-4.20;91.80;;;;;;6329742;28;20040;-78
2023/12/04 04:09:35;;;;;;;35.23;22.27;;;-4.10;91.70;;;;;;6334800;28;20043;-79
2023/12/04 04:12:38;;;;;;;31.80;19.93;;;-4.10;91.70;;;;;;6330915;28;20048;-79
2023/12/04 04:15:40;;;;;;;30.17;18.40;;;-4.00;91.80;;;;;;6324469;28;20043;-79
2023/12/04 04:18:41;;;;;;;26.80;17.27;;;-4.00;91.80;;;;;;6330817;28;20044;-79
2023/12/04 04:21:43;;;;;;;23.97;17.87;;;-3.90;91.80;;;;;;6315903;28;20196;-79
2023/12/04 04:24:45;;;;;;;34.77;20.10;;;-4.00;91.70;;;;;;6311957;28;20155;-79
2023/12/04 04:27:48;;;;;;;27.13;15.97;;;-4.00;91.80;;;;;;6307596;28;20049;-80
2023/12/04 04:30:49;;;;;;;28.23;19.77;;;-3.90;91.80;;;;;;6307678;28;20040;-79
2023/12/04 04:33:51;;;;;;;26.53;18.70;;;-3.90;91.70;;;;;;6318613;28;20054;-78
2023/12/04 04:36:53;;;;;;;33.87;21.23;;;-3.90;91.70;;;;;;6300449;28;20132;-78
2023/12/04 04:39:54;;;;;;;31.03;19.50;;;-3.90;91.80;;;;;;6311408;28;20048;-78
2023/12/04 04:42:57;;;;;;;27.50;19.20;;;-3.90;91.80;;;;;;6314040;28;20118;-79
2023/12/04 04:45:59;;;;;;;27.10;18.20;;;-3.80;91.90;;;;;;6339636;28;20454;-79
2023/12/04 04:49:01;;;;;;;28.23;18.37;;;-3.80;91.90;;;;;;6347171;28;20048;-78
2023/12/04 04:52:03;;;;;;;35.17;19.20;;;-3.70;92.00;;;;;;6337659;28;20421;-79
2023/12/04 04:55:06;;;;;;;34.30;19.50;;;-3.60;92.10;;;;;;6339590;28;20126;-78
2023/12/04 04:58:09;;;;;;;28.00;19.17;;;-3.50;92.00;;;;;;6346676;28;20055;-78
2023/12/04 05:01:11;;;;;;;30.20;18.93;;;-3.50;92.00;;;;;;6348676;28;20050;-78
2023/12/04 05:04:12;;;;;;;26.17;18.17;;;-3.40;92.00;;;;;;6339276;28;20052;-79
2023/12/04 05:07:14;;;;;;;30.80;18.30;;;-3.40;92.00;;;;;;6328780;28;20058;-79
2023/12/04 05:10:16;;;;;;;29.53;18.43;;;-3.30;92.00;;;;;;6353683;28;20048;-79
2023/12/04 05:13:19;;;;;;;27.20;19.20;;;-3.30;91.90;;;;;;6340297;28;20048;-78
2023/12/04 05:16:21;;;;;;;31.53;20.63;;;-3.30;91.80;;;;;;6347214;28;20519;-78
2023/12/04 05:19:22;;;;;;;35.53;18.33;;;-3.30;91.90;;;;;;6337297;28;20778;-79
2023/12/04 05:22:24;;;;;;;28.27;18.67;;;-3.20;92.00;;;;;;6337865;28;20137;-79
2023/12/04 05:25:26;;;;;;;30.70;18.93;;;-3.20;91.90;;;;;;6348352;28;20047;-78
2023/12/04 05:28:29;;;;;;;25.40;18.33;;;-3.20;92.30;;;;;;6339549;28;20051;-78
2023/12/04 05:31:30;;;;;;;30.53;18.93;;;-3.20;92.00;;;;;;6334776;28;20047;-80
2023/12/04 05:34:32;;;;;;;24.70;17.73;;;-3.10;92.00;;;;;;6339656;28;20050;-79
2023/12/04 05:37:34;;;;;;;33.43;20.47;;;-3.10;91.90;;;;;;6344319;28;20391;-78
2023/12/04 05:40:35;;;;;;;34.87;18.80;;;-3.00;92.00;;;;;;6329778;28;20070;-78
2023/12/04 05:43:38;;;;;;;39.60;19.27;;;-3.00;91.90;;;;;;6339899;28;20048;-78
2023/12/04 05:46:40;;;;;;;35.53;22.20;;;-3.00;91.90;;;;;;6350049;28;20044;-78
2023/12/04 05:49:42;;;;;;;40.13;22.43;;;-3.10;91.80;;;;;;6333950;28;20050;-78
2023/12/04 05:52:44;;;;;;;43.73;24.23;;;-3.10;91.80;;;;;;6340009;28;20047;-78
2023/12/04 05:55:46;;;;;;;48.40;26.03;;;-3.10;91.90;;;;;;6342870;28;20036;-78
2023/12/04 05:58:49;;;;;;;49.57;26.83;;;-3.10;91.90;;;;;;6336712;28;20063;-78
2023/12/04 06:01:50;;;;;;;45.70;22.83;;;-3.00;92.00;;;;;;6341156;28;20044;-78
2023/12/04 06:04:52;;;;;;;40.70;23.90;;;-3.00;92.00;;;;;;6332947;28;20119;-78
2023/12/04 06:07:54;;;;;;;41.37;23.70;;;-3.00;92.10;;;;;;6336478;28;20044;-78
2023/12/04 06:10:55;;;;;;;44.73;24.30;;;-3.00;92.00;;;;;;6328522;28;20048;-79
2023/12/04 06:13:58;;;;;;;52.93;26.33;;;-2.90;92.00;;;;;;6334346;28;20393;-78
2023/12/04 06:17:00;;;;;;;46.20;22.60;;;-2.90;92.00;;;;;;6323220;28;20067;-78
2023/12/04 06:20:02;;;;;;;36.23;22.00;;;-2.90;92.00;;;;;;6322254;28;20040;-79
2023/12/04 06:23:04;;;;;;;39.37;23.33;;;-2.90;92.00;;;;;;6320509;28;20048;-79
2023/12/04 06:26:07;;;;;;;42.60;24.67;;;-2.90;92.00;;;;;;6327618;28;20063;-78
2023/12/04 06:29:11;;;;;;;41.00;23.50;;;-2.90;92.00;;;;;;6322033;28;20051;-78
2023/12/04 06:32:13;;;;;;;49.30;24.20;;;-2.90;92.10;;;;;;6328906;28;20055;-78
2023/12/04 06:35:16;;;;;;;39.20;23.83;;;-2.90;92.10;;;;;;6336611;28;20123;-79
2023/12/04 06:38:19;;;;;;;43.00;23.70;;;-2.80;92.10;;;;;;6320771;28;20043;-79
2023/12/04 06:41:21;;;;;;;44.73;25.27;;;-2.80;92.10;;;;;;6313212;28;20086;-79
2023/12/04 06:44:25;;;;;;;43.60;25.53;;;-2.80;92.00;;;;;;6328795;28;20143;-80
2023/12/04 06:47:29;;;;;;;39.97;22.07;;;-2.80;92.00;;;;;;6321847;28;20044;-78
2023/12/04 06:50:31;;;;;;;36.80;23.43;;;-2.90;92.00;;;;;;6336194;28;20711;-78
2023/12/04 06:53:32;;;;;;;45.30;23.73;;;-2.80;92.00;;;;;;6331487;28;20059;-78
2023/12/04 06:56:34;;;;;;;32.50;19.37;;;-2.80;92.10;;;;;;6326619;28;20055;-78
2023/12/04 06:59:37;;;;;;;39.37;21.07;;;-2.70;92.10;;;;;;6328834;28;20099;-79
2023/12/04 07:02:39;;;;;;;38.70;23.93;;;-2.70;92.10;;;;;;6331894;28;20047;-77
2023/12/04 07:05:40;;;;;;;37.80;23.40;;;-2.60;92.20;;;;;;6334999;28;20096;-79
2023/12/04 07:08:42;;;;;;;39.90;24.33;;;-2.60;92.20;;;;;;6329189;28;20054;-79
2023/12/04 07:11:44;;;;;;;41.37;23.87;;;-2.50;92.20;;;;;;6323092;28;20040;-79
2023/12/04 07:14:47;;;;;;;37.20;23.80;;;-2.50;92.20;;;;;;6333283;28;20051;-78
2023/12/04 07:17:49;;;;;;;40.30;22.80;;;-2.40;92.30;;;;;;6323793;28;20054;-79
2023/12/04 07:20:50;;;;;;;32.57;19.67;;;-2.30;92.30;;;;;;6334049;28;20055;-78
2023/12/04 07:23:52;;;;;;;35.03;23.43;;;-2.30;92.30;;;;;;6321916;28;20044;-78
2023/12/04 07:26:54;;;;;;;36.87;23.37;;;-2.20;92.30;;;;;;6320691;28;20052;-78
2023/12/04 07:29:57;;;;;;;32.83;21.10;;;-2.20;92.30;;;;;;6327823;28;20707;-79
2023/12/04 07:32:58;;;;;;;38.97;23.40;;;-2.10;92.30;;;;;;6320686;28;20540;-79
2023/12/04 07:36:00;;;;;;;37.07;22.90;;;-2.00;92.30;;;;;;6321130;28;20051;-78
2023/12/04 07:39:03;;;;;;;41.37;22.23;;;-2.00;92.40;;;;;;6290847;22;20201;-79
2023/12/04 07:42:05;;;;;;;35.63;21.17;;;-1.80;92.50;;;;;;6257622;28;20049;-79
2023/12/04 07:45:10;;;;;;;27.97;18.53;;;-1.80;92.50;;;;;;6249450;28;20064;-79
2023/12/04 07:48:12;;;;;;;36.97;20.23;;;-1.70;92.40;;;;;;6292179;28;20059;-79
2023/12/04 07:51:14;;;;;;;27.80;18.63;;;-1.60;92.30;;;;;;6298616;28;20063;-79
2023/12/04 07:54:16;;;;;;;33.23;23.30;;;-1.60;92.30;;;;;;6299356;28;20123;-79
2023/12/04 07:57:18;;;;;;;36.60;22.13;;;-1.50;92.30;;;;;;6298004;28;20055;-78
2023/12/04 08:00:22;;;;;;;47.93;27.17;;;-1.50;92.40;;;;;;6298245;28;20056;-78
2023/12/04 08:03:24;;;;;;;40.83;28.40;;;-1.40;92.40;;;;;;6301133;28;20052;-79
2023/12/04 08:06:26;;;;;;;40.53;24.87;;;-1.30;92.50;;;;;;6256041;28;20067;-79
2023/12/04 08:09:28;;;;;;;36.60;25.63;;;-1.20;92.50;;;;;;6289291;28;20048;-79
2023/12/04 08:12:29;;;;;;;34.50;23.63;;;-1.20;92.50;;;;;;6285301;28;20045;-79
2023/12/04 08:15:32;;;;;;;34.23;21.33;;;-1.10;92.50;;;;;;6285751;28;20401;-79
2023/12/04 08:18:34;;;;;;;31.43;21.07;;;-1.00;92.60;;;;;;6283193;28;20354;-79
2023/12/04 08:21:36;;;;;;;31.30;20.80;;;-0.90;92.60;;;;;;6284973;28;20037;-79
2023/12/04 08:24:38;;;;;;;36.73;22.33;;;-0.90;92.60;;;;;;6289795;28;20053;-79
2023/12/04 08:27:39;;;;;;;32.27;21.13;;;-0.80;92.90;;;;;;6286345;28;20049;-80
2023/12/04 08:30:42;;;;;;;41.60;24.43;;;-0.70;92.60;;;;;;6293078;28;20052;-81
2023/12/04 08:33:44;;;;;;;36.03;24.63;;;-0.60;92.60;;;;;;6296388;28;20049;-79
2023/12/04 08:36:46;;;;;;;36.73;21.67;;;-0.60;92.50;;;;;;6297425;28;20048;-81
2023/12/04 08:39:48;;;;;;;37.40;25.60;;;-0.50;92.50;;;;;;6286129;28;20481;-79
2023/12/04 08:42:50;;;;;;;38.90;22.93;;;-0.50;92.50;;;;;;6276950;28;20045;-79
2023/12/04 08:45:53;;;;;;;32.00;22.37;;;-0.40;92.50;;;;;;6287400;28;20048;-79
2023/12/04 08:48:54;;;;;;;35.80;23.47;;;-0.30;92.50;;;;;;6287580;28;20048;-79
2023/12/04 08:51:56;;;;;;;36.97;22.60;;;-0.30;92.50;;;;;;6291182;28;20047;-80
2023/12/04 08:54:58;;;;;;;28.57;18.90;;;-0.20;92.40;;;;;;6293418;28;20044;-79
2023/12/04 08:58:00;;;;;;;37.05;25.40;;;-0.20;92.40;;;;;;6302127;28;20044;-80
2023/12/04 09:01:03;;;;;;;32.95;21.60;;;-0.10;92.40;;;;;;6302520;28;20045;-82
2023/12/04 09:04:05;;;;;;;34.03;22.55;;;0.00;92.40;;;;;;6301066;28;20049;-80
2023/12/04 09:07:07;;;;;;;32.72;20.38;;;0.10;92.40;;;;;;6300545;28;20100;-80
2023/12/04 09:10:09;;;;;;;34.22;20.73;;;0.20;92.40;;;;;;6304153;28;20048;-81
2023/12/04 09:13:10;;;;;;;33.35;22.75;;;0.30;92.40;;;;;;6303729;28;20530;-81
2023/12/04 09:16:14;;;;;;;27.33;17.98;;;0.30;92.30;;;;;;6302767;28;20662;-79
2023/12/04 09:19:15;;;;;;;29.27;20.50;;;0.40;92.30;;;;;;6302244;28;20051;-80
2023/12/04 09:22:17;;;;;;;26.73;19.13;;;0.40;92.20;;;;;;6304048;28;20178;-80
2023/12/04 09:25:19;;;;;;;27.92;18.77;;;0.40;92.20;;;;;;6304776;28;20072;-80
2023/12/04 09:28:20;;;;;;;25.15;16.73;;;0.40;92.30;;;;;;6305966;28;20044;-80
2023/12/04 09:31:23;;;;;;;26.08;17.60;;;0.50;92.30;;;;;;6304574;28;20052;-80
2023/12/04 09:34:25;;;;;;;25.38;17.75;;;0.60;92.60;;;;;;6307434;28;20517;-82
2023/12/04 09:37:27;;;;;;;28.67;17.38;;;0.60;92.20;;;;;;6303347;28;20315;-80
2023/12/04 09:40:28;;;;;;;23.63;14.30;;;0.60;92.20;;;;;;6304283;28;20037;-79
2023/12/04 09:43:32;;;;;;;23.92;15.77;;;0.70;92.10;;;;;;6302870;28;20050;-80
2023/12/04 09:46:35;;;;;;;22.63;15.68;;;0.80;92.20;;;;;;6286770;28;20037;-80
2023/12/04 09:49:38;;;;;;;25.77;16.95;;;0.80;92.20;;;;;;6287633;28;20045;-81
2023/12/04 09:52:40;;;;;;;23.00;17.00;;;0.90;92.10;;;;;;6278885;28;20490;-80
2023/12/04 09:55:42;;;;;;;26.60;15.65;;;0.90;92.10;;;;;;6294579;28;20053;-80
2023/12/04 09:58:45;;;;;;;26.20;17.77;;;0.80;91.90;;;;;;6293031;28;20060;-80
2023/12/04 10:01:48;;;;;;;24.23;17.60;;;0.80;91.90;;;;;;6291247;28;20053;-81
2023/12/04 10:04:50;;;;;;;25.55;17.45;;;0.80;92.00;;;;;;6290394;28;20135;-82
2023/12/04 10:07:52;;;;;;;27.55;17.55;;;0.80;92.30;;;;;;6282355;28;20041;-81
2023/12/04 10:10:53;;;;;;;52.00;46.58;;;1.00;92.10;;;;;;6289363;28;20037;-80
2023/12/04 10:13:55;;;;;;;35.22;24.92;;;1.10;92.00;;;;;;6290014;28;20513;-81
2023/12/04 10:16:59;;;;;;;28.75;20.70;;;1.10;91.80;;;;;;6291115;28;20064;-80
2023/12/04 10:20:11;;;;;;;27.45;17.15;;;1.20;91.80;;;;;;6294378;28;20063;-79
2023/12/04 10:23:13;;;;;;;25.33;16.85;;;1.30;91.80;;;;;;6297965;28;20097;-80
2023/12/04 10:26:16;;;;;;;22.75;16.88;;;1.40;91.80;;;;;;6302783;28;20047;-80
2023/12/04 10:29:17;;;;;;;24.30;16.48;;;1.50;91.80;;;;;;6300404;28;20044;-80
2023/12/04 10:32:21;;;;;;;22.33;16.02;;;1.50;91.90;;;;;;6300467;28;20072;-80
2023/12/04 10:35:23;;;;;;;26.92;19.52;;;1.60;91.90;;;;;;6302278;28;20051;-80
2023/12/04 10:38:26;;;;;;;20.85;15.25;;;1.50;91.80;;;;;;6306952;28;20059;-80
2023/12/04 10:41:28;;;;;;;24.20;17.83;;;1.50;91.80;;;;;;6303462;28;20094;-81
2023/12/04 10:44:32;;;;;;;30.52;19.02;;;1.50;91.70;;;;;;6303580;28;20412;-80
2023/12/04 10:47:36;;;;;;;22.05;16.50;;;1.40;91.50;;;;;;6307171;28;20055;-81
2023/12/04 10:50:39;;;;;;;32.05;15.77;;;1.30;91.50;;;;;;6301350;28;20627;-80
2023/12/04 10:53:42;;;;;;;28.48;19.55;;;1.20;91.50;;;;;;6305604;28;20076;-81
2023/12/04 10:56:47;;;;;;;24.98;17.05;;;1.20;91.60;;;;;;6296501;28;20537;-80
2023/12/04 10:59:52;;;;;;;23.92;16.35;;;1.10;91.70;;;;;;6294351;28;20045;-81
2023/12/04 11:02:57;;;;;;;26.50;17.58;;;1.10;91.80;;;;;;6301055;28;20052;-81
2023/12/04 11:06:04;;;;;;;24.95;18.35;;;1.10;91.80;;;;;;6297418;28;20044;-80
2023/12/04 11:09:07;;;;;;;25.48;16.05;;;1.10;91.80;;;;;;6296962;28;20528;-81
2023/12/04 11:12:12;;;;;;;23.05;15.05;;;1.00;91.70;;;;;;6295252;28;20048;-81
2023/12/04 11:15:17;;;;;;;25.40;16.65;;;0.90;91.90;;;;;;6296574;28;20044;-81
2023/12/04 11:18:23;;;;;;;21.35;14.57;;;1.00;92.10;;;;;;6295337;28;20049;-81
2023/12/04 11:21:26;;;;;;;21.92;16.23;;;1.10;92.10;;;;;;6296050;28;20059;-81
2023/12/04 11:24:28;;;;;;;22.73;16.83;;;1.10;92.00;;;;;;6302660;28;20076;-81
2023/12/04 11:27:30;;;;;;;28.38;16.98;;;1.10;92.00;;;;;;6303921;28;20048;-81
2023/12/04 11:30:32;;;;;;;23.23;15.82;;;1.20;92.00;;;;;;6301529;28;20075;-81
2023/12/04 11:33:37;;;;;;;24.70;17.92;;;1.20;92.10;;;;;;6309375;28;20083;-81
2023/12/04 11:36:39;;;;;;;18.77;15.02;;;1.30;92.20;;;;;;6300965;28;20119;-81
2023/12/04 11:39:42;;;;;;;31.63;23.38;;;1.30;92.20;;;;;;6293244;28;20045;-81
2023/12/04 11:42:44;;;;;;;22.42;15.38;;;1.30;92.20;;;;;;6299432;28;20040;-81
2023/12/04 11:45:48;;;;;;;21.27;17.33;;;1.40;92.20;;;;;;6298582;28;20055;-81
2023/12/04 11:48:54;;;;;;;18.58;14.65;;;1.50;92.20;;;;;;6294820;28;20469;-81
2023/12/04 11:51:56;;;;;;;30.98;25.75;;;1.50;92.10;;;;;;6295041;28;20055;-81
2023/12/04 11:55:00;;;;;;;22.58;15.73;;;1.50;92.00;;;;;;6302113;28;20054;-81
2023/12/04 11:58:09;;;;;;;21.33;13.82;;;1.50;92.20;;;;;;6292908;28;20053;-81
2023/12/04 12:01:10;;;;;;;17.20;14.00;;;1.60;92.20;;;;;;6293848;28;20044;-81
2023/12/04 12:04:16;;;;;;;19.55;13.93;;;1.60;92.20;;;;;;6292878;28;20052;-81
2023/12/04 12:07:18;;;;;;;18.85;14.23;;;1.70;92.60;;;;;;6291429;28;20086;-81
2023/12/04 12:10:20;;;;;;;22.98;13.05;;;1.70;92.20;;;;;;6299757;28;20509;-80
2023/12/04 12:13:23;;;;;;;23.52;14.70;;;1.70;92.20;;;;;;6295024;28;20135;-80
2023/12/04 12:16:25;;;;;;;16.98;12.95;;;1.70;92.10;;;;;;6295478;28;20040;-80
2023/12/04 12:19:29;;;;;;;24.00;16.60;;;1.70;92.10;;;;;;6304546;28;20040;-78
2023/12/04 12:22:30;;;;;;;26.60;16.88;;;1.70;92.20;;;;;;6296982;28;20089;-82
2023/12/04 12:25:33;;;;;;;19.25;15.15;;;1.70;92.20;;;;;;6291633;28;20045;-80
2023/12/04 12:28:36;;;;;;;26.00;15.90;;;1.80;92.30;;;;;;6296281;28;20067;-79
2023/12/04 12:31:38;;;;;;;25.20;15.68;;;1.80;92.20;;;;;;6297594;28;20048;-80
2023/12/04 12:34:42;;;;;;;24.25;17.25;;;1.90;92.20;;;;;;6290135;28;20055;-81
2023/12/04 12:37:44;;;;;;;22.35;16.45;;;1.80;92.20;;;;;;6292766;28;20061;-81
2023/12/04 12:40:45;;;;;;;23.27;16.73;;;1.80;92.60;;;;;;6291950;28;20072;-82
2023/12/04 12:43:48;;;;;;;26.98;16.70;;;1.90;92.30;;;;;;6293362;28;20041;-81
2023/12/04 12:46:50;;;;;;;34.65;21.50;;;1.90;92.20;;;;;;6288645;28;20048;-83
2023/12/04 12:49:53;;;;;;;29.52;21.13;;;2.00;92.30;;;;;;6287321;28;20555;-81
2023/12/04 12:52:56;;;;;;;32.42;20.58;;;2.00;92.30;;;;;;6299381;28;20056;-81
2023/12/04 12:55:59;;;;;;;89.50;52.13;;;1.90;92.20;;;;;;6295123;28;20059;-80
2023/12/04 12:59:01;;;;;;;28.08;22.52;;;1.90;92.30;;;;;;6295255;28;20106;-79
2023/12/04 13:02:06;;;;;;;31.77;20.27;;;1.90;92.30;;;;;;6298880;28;20533;-83
2023/12/04 13:05:09;;;;;;;28.75;18.80;;;1.90;92.40;;;;;;6304759;28;20044;-81
2023/12/04 13:08:12;;;;;;;27.08;20.63;;;1.90;92.40;;;;;;6303080;28;20117;-79
2023/12/04 13:11:14;;;;;;;27.08;20.38;;;1.90;92.40;;;;;;6294039;28;20049;-79
2023/12/04 13:14:15;;;;;;;28.48;19.20;;;2.00;92.50;;;;;;6293782;28;20044;-80
2023/12/04 13:17:17;;;;;;;29.33;18.45;;;2.00;92.50;;;;;;6294218;28;20048;-80
2023/12/04 13:20:20;;;;;;;30.70;19.33;;;2.00;92.50;;;;;;6289815;28;20041;-80
2023/12/04 13:23:24;;;;;;;25.52;18.35;;;2.00;92.50;;;;;;6281199;28;20409;-80
2023/12/04 13:26:25;;;;;;;24.95;17.85;;;2.00;92.50;;;;;;6292939;28;20036;-82
2023/12/04 13:29:27;;;;;;;33.13;18.45;;;2.00;92.50;;;;;;6301476;28;20044;-80
2023/12/04 13:32:29;;;;;;;27.30;17.40;;;2.00;92.50;;;;;;6299023;28;20505;-79
2023/12/04 13:35:32;;;;;;;26.17;18.20;;;2.00;92.60;;;;;;6301923;28;20052;-79
2023/12/04 13:38:35;;;;;;;26.45;18.55;;;2.00;92.60;;;;;;6301203;28;20047;-79
2023/12/04 13:44:56;;;;;;;24.85;16.58;;;2.00;92.50;;;;;;6296033;28;20044;-79
2023/12/04 13:47:57;;;;;;;24.65;16.38;;;2.00;92.50;;;;;;6302288;28;20412;-79
2023/12/04 13:51:00;;;;;;;22.67;16.67;;;2.00;92.60;;;;;;6302314;28;20449;-80
2023/12/04 13:54:11;;;;;;;26.25;18.98;;;2.00;92.60;;;;;;6300919;28;20048;-80
2023/12/04 13:57:18;;;;;;;27.83;16.80;;;2.10;92.70;;;;;;6300916;28;20048;-83
2023/12/04 14:00:20;;;;;;;24.52;17.35;;;2.10;92.70;;;;;;6295285;28;20037;-79
2023/12/04 14:03:22;;;;;;;26.52;18.30;;;2.10;92.70;;;;;;6284940;28;20547;-79
2023/12/04 14:06:25;;;;;;;29.27;18.65;;;2.10;92.80;;;;;;6286307;28;20526;-78
2023/12/04 14:09:27;;;;;;;26.98;18.08;;;2.10;92.80;;;;;;6287957;28;20044;-79
2023/12/04 14:12:28;;;;;;;25.83;19.45;;;2.10;92.90;;;;;;6287191;28;20036;-80
2023/12/04 14:15:30;;;;;;;34.80;22.38;;;2.10;92.90;;;;;;6291651;28;20049;-82
2023/12/04 14:18:32;;;;;;;26.48;18.55;;;2.10;92.80;;;;;;6290687;28;20106;-81
2023/12/04 14:21:35;;;;;;;28.45;22.30;;;2.10;92.90;;;;;;6295159;28;20056;-79
2023/12/04 14:24:37;;;;;;;31.25;23.08;;;2.10;92.90;;;;;;6295757;28;20048;-79
2023/12/04 14:27:40;;;;;;;30.02;21.55;;;2.10;93.00;;;;;;6297780;28;20051;-81
2023/12/04 14:30:42;;;;;;;27.10;19.90;;;2.10;92.90;;;;;;6298881;28;20457;-80
2023/12/04 14:33:43;;;;;;;25.92;18.15;;;2.10;92.90;;;;;;6298690;28;20367;-77
2023/12/04 14:36:46;;;;;;;27.45;18.30;;;2.00;92.80;;;;;;6296195;28;20071;-78
2023/12/04 14:39:48;;;;;;;29.42;19.02;;;2.00;92.90;;;;;;6299501;28;20116;-78
2023/12/04 14:42:50;;;;;;;28.95;19.83;;;2.00;92.90;;;;;;6298693;28;20036;-78
2023/12/04 14:45:53;;;;;;;29.23;20.33;;;2.00;92.90;;;;;;6298511;28;20521;-79
2023/12/04 14:48:55;;;;;;;34.22;19.38;;;2.00;93.00;;;;;;6299305;28;20040;-79
2023/12/04 14:52:00;;;;;;;31.20;20.73;;;2.00;93.00;;;;;;6300328;28;20044;-80
2023/12/04 14:55:45;;;;;;;42.40;24.70;;;2.00;93.10;;;;;;6302358;28;20048;-83
2023/12/04 15:12:22;;;;;;;;;;;2.00;93.10;;;;;;6291310;28;20045;-78
2023/12/04 15:15:39;;;;;;;28.05;19.15;;;2.00;93.20;;;;;;6297179;28;19927;-78
2023/12/04 15:18:56;;;;;;;40.25;24.35;;;1.90;93.20;;;;;;6295768;28;20071;-77
2023/12/04 15:21:58;;;;;;;30.70;22.67;;;1.90;93.20;;;;;;6295953;28;20060;-78
2023/12/04 15:25:00;;;;;;;30.10;21.38;;;1.90;93.30;;;;;;6295371;28;20048;-77
2023/12/04 15:28:06;;;;;;;34.47;20.65;;;1.90;93.30;;;;;;6294944;28;20057;-77
2023/12/04 15:31:08;;;;;;;30.60;21.02;;;1.90;93.30;;;;;;6295889;28;20394;-77
2023/12/04 15:34:09;;;;;;;30.45;21.17;;;1.90;93.30;;;;;;6298447;28;20098;-78
2023/12/04 15:37:11;;;;;;;32.17;20.13;;;1.90;93.30;;;;;;6297155;28;20167;-77
2023/12/04 15:40:13;;;;;;;30.25;20.92;;;1.80;93.20;;;;;;6295763;28;20055;-77
2023/12/04 15:43:16;;;;;;;26.23;19.60;;;1.80;93.50;;;;;;6298310;28;20033;-77
2023/12/04 15:46:17;;;;;;;33.55;20.33;;;1.80;93.30;;;;;;6299638;28;20048;-80
2023/12/04 15:49:19;;;;;;;31.02;18.63;;;1.80;93.30;;;;;;6303360;28;20052;-78